Time;durP1;ratioP1;P1;durP2;ratioP2;P2;SDS_P1;SDS_P2;PMS_P1;PMS_P2;Temp;Humidity;BMP_temperature;BMP_pressure;BME280_temperature;BME280_humidity;BME280_pressure;Samples;Min_cycle;Max_cycle;Signal;HPM_P1;HPM_P2
2022/09/23 00:01:51;;;;;;;;;25.20;23.20;;;;;14.79;61.17;99219.38;6181640;28;96740;-66
2022/09/23 00:04:54;;;;;;;;;28.00;26.60;;;;;14.74;61.45;99222.00;6185908;28;96753;-61
2022/09/23 00:07:58;;;;;;;;;32.60;30.00;;;;;14.77;61.40;99217.97;6186369;28;97755;-66
2022/09/23 00:11:07;;;;;;;;;32.40;29.40;;;;;14.82;61.33;99220.78;6187255;28;96389;-61
2022/09/23 00:14:10;;;;;;;;;33.80;30.00;;;;;14.84;61.21;99213.25;6188182;28;96774;-62
2022/09/23 00:17:14;;;;;;;;;32.80;30.00;;;;;14.79;61.38;99218.56;6187884;28;97323;-62
2022/09/23 00:20:17;;;;;;;;;32.50;28.50;;;;;14.78;61.38;99211.47;6169745;28;96656;-68
2022/09/23 00:23:21;;;;;;;;;36.50;30.75;;;;;14.74;61.70;99211.16;6189283;28;96273;-60
2022/09/23 00:26:26;;;;;;;;;30.50;28.75;;;;;14.65;61.81;99201.72;6187776;28;96535;-66
2022/09/23 00:29:30;;;;;;;;;31.80;29.80;;;;;14.62;61.75;99204.91;6187586;28;96835;-62
2022/09/23 00:32:34;;;;;;;;;39.00;30.00;;;;;14.60;62.03;99198.91;6185096;28;96652;-68
2022/09/23 00:35:38;;;;;;;;;32.60;30.20;;;;;14.44;62.33;99176.06;6187395;28;96248;-68
2022/09/23 00:38:42;;;;;;;;;37.00;32.00;;;;;14.57;62.38;99196.66;6186263;28;96053;-63
2022/09/23 00:41:53;;;;;;;;;38.00;32.00;;;;;14.55;62.21;99190.66;6188540;28;96474;-62
2022/09/23 00:44:58;;;;;;;;;37.00;32.00;;;;;14.53;62.29;99195.50;6169810;28;97197;-61
2022/09/23 00:48:03;;;;;;;;;43.00;34.00;;;;;14.57;62.34;99199.38;6186222;28;99770;-68
2022/09/23 00:51:11;;;;;;;;;39.50;31.75;;;;;14.51;62.42;99190.34;6187445;28;96396;-68
2022/09/23 00:54:15;;;;;;;;;38.75;33.00;;;;;14.47;62.53;99200.00;6170337;28;96560;-62
2022/09/23 00:57:20;;;;;;;;;38.00;33.00;;;;;14.48;62.49;99196.22;6187081;28;96774;-66
2022/09/23 01:00:25;;;;;;;;;38.00;33.00;;;;;14.51;62.45;99190.34;6183270;28;97509;-66
2022/09/23 01:03:28;;;;;;;;;41.60;34.00;;;;;14.51;62.55;99194.94;6186555;28;96257;-68
2022/09/23 01:06:32;;;;;;;;;43.00;35.00;;;;;14.53;62.48;99188.19;6184185;28;96960;-66
2022/09/23 01:09:36;;;;;;;;;41.00;35.00;;;;;14.45;62.44;99185.03;6178013;28;96552;-62
2022/09/23 01:12:57;;;;;;;;;35.40;32.00;;;;;14.38;62.82;99201.44;6187504;28;96809;-59
2022/09/23 01:16:08;;;;;;;;;36.40;31.80;;;;;14.32;63.03;99183.34;6169546;28;98388;-67
2022/09/23 01:19:28;;;;;;;;;39.20;33.40;;;;;14.40;62.87;99187.63;6184211;28;96860;-64
2022/09/23 01:22:39;;;;;;;;;39.40;34.80;;;;;14.42;62.74;99185.50;6186070;28;96347;-67
2022/09/23 01:26:06;;;;;;;;;35.60;32.00;;;;;14.38;62.89;99176.19;6187080;28;97017;-68
2022/09/23 01:29:50;;;;;;;;;34.20;31.40;;;;;14.36;62.84;99178.31;6186591;28;96791;-60
2022/09/23 01:33:13;;;;;;;;;35.40;31.20;;;;;14.38;62.98;99176.19;6186696;28;96262;-67
2022/09/23 01:36:23;;;;;;;;;35.00;30.00;;;;;14.40;62.70;99174.91;6180161;28;96926;-62
2022/09/23 01:39:37;;;;;;;;;34.00;30.00;;;;;14.41;62.81;99173.84;6175989;28;96314;-65
2022/09/23 01:42:46;;;;;;;;;34.00;30.00;;;;;14.43;62.63;99177.13;6187439;28;96258;-68
2022/09/23 01:45:57;;;;;;;;;32.50;29.25;;;;;14.49;62.39;99167.22;6186996;28;96063;-67
2022/09/23 01:49:08;;;;;;;;;32.00;29.50;;;;;14.48;62.43;99173.69;6185263;28;96371;-61
2022/09/23 01:52:19;;;;;;;;;31.00;29.00;;;;;14.43;62.70;99168.97;6185980;28;96604;-69
2022/09/23 01:55:29;;;;;;;;;32.50;29.50;;;;;14.49;62.48;99169.91;6169828;28;96248;-60
2022/09/23 01:58:40;;;;;;;;;31.80;29.20;;;;;14.48;62.35;99165.56;6181681;28;96477;-66
2022/09/23 02:01:50;;;;;;;;;30.60;28.20;;;;;14.47;62.54;99169.31;6186260;28;96415;-63
2022/09/23 02:05:00;;;;;;;;;31.00;27.60;;;;;14.44;62.64;99170.63;6190302;28;98556;-64
2022/09/23 02:08:09;;;;;;;;;38.40;32.00;;;;;14.46;62.46;99173.94;6178894;28;96711;-63
2022/09/23 02:11:15;;;;;;;;;33.00;30.00;;;;;14.44;62.52;99176.06;6190268;28;96340;-68
2022/09/23 02:14:23;;;;;;;;;34.25;30.00;;;;;14.42;62.62;99182.78;6191238;28;97497;-62
2022/09/23 02:17:35;;;;;;;;;34.00;31.00;;;;;14.46;62.59;99173.94;6190896;28;97584;-62
2022/09/23 02:20:41;;;;;;;;;35.25;32.00;;;;;14.54;62.40;99180.88;6188979;28;96666;-60
2022/09/23 02:23:50;;;;;;;;;33.00;30.00;;;;;14.54;62.28;99184.41;6191042;28;96396;-60
2022/09/23 02:27:03;;;;;;;;;35.00;31.00;;;;;14.44;62.57;99173.34;6185517;28;96575;-66
2022/09/23 02:30:13;;;;;;;;;34.67;31.67;;;;;14.39;62.25;99162.41;6184976;28;98615;-63
2022/09/23 02:33:21;;;;;;;;;34.60;30.40;;;;;14.51;62.53;99171.34;6187149;28;98605;-61
2022/09/23 02:36:32;;;;;;;;;38.60;31.60;;;;;14.54;62.23;99173.56;6188606;28;96238;-66
2022/09/23 02:39:51;;;;;;;;;38.00;32.00;;;;;14.41;62.70;99168.41;6178138;28;96792;-68
2022/09/23 02:43:05;;;;;;;;;32.80;28.60;;;;;14.47;62.51;99175.56;6188173;28;96256;-63
2022/09/23 02:46:11;;;;;;;;;35.50;30.00;;;;;14.11;62.43;99114.31;6188636;28;96625;-61
2022/09/23 02:49:19;;;;;;;;;33.20;29.20;;;;;14.48;62.29;99171.81;6189257;28;97219;-59
2022/09/23 02:52:24;;;;;;;;;33.20;29.80;;;;;14.50;62.32;99174.28;6189149;28;96649;-70
2022/09/23 02:55:31;;;;;;;;;35.20;30.00;;;;;14.48;62.36;99176.41;6190070;28;96240;-67
2022/09/23 02:58:34;;;;;;;;;34.40;30.40;;;;;14.49;62.47;99176.16;6190206;28;96542;-68
2022/09/23 03:01:47;;;;;;;;;35.20;31.00;;;;;14.52;62.27;99175.69;6183127;28;96774;-68
2022/09/23 03:05:04;;;;;;;;;34.40;32.00;;;;;14.52;62.21;99175.69;6187472;28;96471;-62
2022/09/23 03:08:28;;;;;;;;;38.00;32.00;;;;;14.50;62.14;99177.81;6179189;28;98343;-68
2022/09/23 03:11:33;;;;;;;;;36.60;32.00;;;;;14.54;62.23;99180.88;6190122;28;96829;-61
2022/09/23 03:14:48;;;;;;;;;36.00;32.00;;;;;14.55;62.20;99177.94;6187445;28;96804;-60
2022/09/23 03:18:00;;;;;;;;;34.00;30.00;;;;;14.52;62.20;99180.28;6188360;28;96682;-68
2022/09/23 03:21:08;;;;;;;;;36.00;32.00;;;;;14.48;62.54;99173.69;6187475;28;96781;-60
2022/09/23 03:24:15;;;;;;;;;39.00;32.00;;;;;14.43;62.63;99163.56;6172439;28;96596;-68
2022/09/23 03:27:24;;;;;;;;;35.60;31.00;;;;;14.33;62.49;99157.88;6182439;28;96680;-60
2022/09/23 03:30:30;;;;;;;;;36.20;31.20;;;;;14.38;62.89;99162.63;6182855;28;96333;-61
2022/09/23 03:33:36;;;;;;;;;36.00;32.00;;;;;14.33;63.11;99161.44;6186308;28;96378;-59
2022/09/23 03:36:50;;;;;;;;;35.50;31.00;;;;;14.24;63.20;99167.47;6170373;28;96978;-61
2022/09/23 03:39:59;;;;;;;;;31.75;30.00;;;;;14.25;63.20;99158.28;6181377;28;96933;-66
2022/09/23 03:43:04;;;;;;;;;37.40;33.00;;;;;14.30;63.16;99166.50;6192218;28;96624;-65
2022/09/23 03:46:08;;;;;;;;;34.80;30.40;;;;;14.32;63.30;99164.38;6183164;28;96466;-59
2022/09/23 03:49:17;;;;;;;;;33.60;31.60;;;;;14.32;63.22;99154.34;6177607;28;97073;-66
2022/09/23 03:52:22;;;;;;;;;34.20;30.20;;;;;14.43;63.02;99158.13;6188346;28;96327;-62
2022/09/23 03:55:27;;;;;;;;;32.67;30.00;;;;;14.44;63.09;99156.25;6185728;28;98583;-63
2022/09/23 03:58:31;;;;;;;;;37.00;32.00;;;;;14.46;63.14;99157.69;6192378;28;98458;-68
2022/09/23 04:01:34;;;;;;;;;32.40;30.40;;;;;14.51;62.76;99148.81;6170729;28;96631;-62
2022/09/23 04:04:40;;;;;;;;;38.80;32.00;;;;;14.56;62.33;99146.19;6176300;28;96319;-68
2022/09/23 04:07:44;;;;;;;;;38.40;32.40;;;;;14.68;62.45;99153.22;6170618;28;96359;-60
2022/09/23 04:10:49;;;;;;;;;38.00;33.00;;;;;14.70;62.20;99159.25;6164710;28;97142;-61
2022/09/23 04:13:57;;;;;;;;;34.60;30.00;;;;;14.72;62.19;99161.69;6188175;28;96394;-67
2022/09/23 04:17:00;;;;;;;;;38.40;32.00;;;;;14.70;62.21;99159.25;6166858;28;96649;-68
2022/09/23 04:20:04;;;;;;;;;39.20;33.00;;;;;14.75;62.13;99161.22;6186462;28;97175;-60
2022/09/23 04:23:07;;;;;;;;;40.40;33.60;;;;;14.69;62.09;99162.19;6183377;28;96474;-68
2022/09/23 04:26:12;;;;;;;;;39.00;33.25;;;;;14.72;61.97;99162.53;6174854;28;96407;-62
2022/09/23 04:29:15;;;;;;;;;35.00;30.50;;;;;14.77;61.83;99166.41;6179686;28;96315;-68
2022/09/23 04:32:19;;;;;;;;;38.60;33.00;;;;;14.77;61.89;99169.94;6180266;28;96828;-68
2022/09/23 04:35:22;;;;;;;;;41.20;35.00;;;;;14.81;61.80;99165.66;6169335;28;99296;-62
2022/09/23 04:38:25;;;;;;;;;38.40;33.00;;;;;14.77;61.78;99164.50;6180613;28;97704;-66
2022/09/23 04:41:30;;;;;;;;;36.60;32.00;;;;;14.86;61.69;99168.47;6184511;28;97091;-60
2022/09/23 04:44:34;;;;;;;;;36.00;33.00;;;;;14.78;61.66;99168.06;6189266;28;96181;-67
2022/09/23 04:47:37;;;;;;;;;38.80;33.40;;;;;14.85;61.54;99166.03;6187550;28;96952;-60
2022/09/23 04:50:41;;;;;;;;;40.25;34.25;;;;;14.89;61.29;99167.19;6186069;28;96412;-60
2022/09/23 04:53:45;;;;;;;;;42.40;33.40;;;;;14.85;61.36;99174.19;6172371;28;97007;-60
2022/09/23 04:56:50;;;;;;;;;37.33;32.00;;;;;14.78;61.30;99168.88;6146123;28;96521;-60
2022/09/23 04:59:55;;;;;;;;;39.00;33.50;;;;;14.74;61.85;99170.44;6160689;28;96674;-66
2022/09/23 05:02:59;;;;;;;;;36.00;32.75;;;;;14.82;61.60;99174.63;6179582;28;97686;-64
2022/09/23 05:06:02;;;;;;;;;43.40;35.00;;;;;14.87;61.53;99172.03;6175188;28;96805;-62
2022/09/23 05:09:08;;;;;;;;;43.00;35.00;;;;;14.86;61.47;99173.91;6196874;28;96890;-64
2022/09/23 05:12:13;;;;;;;;;41.20;35.00;;;;;14.93;61.50;99187.34;6167398;28;96619;-68
2022/09/23 05:15:16;;;;;;;;;42.67;35.00;;;;;14.94;60.92;99181.69;6176082;28;98435;-64
2022/09/23 05:18:20;;;;;;;;;45.50;36.00;;;;;15.04;61.03;99181.06;6184152;28;96462;-63
2022/09/23 05:21:26;;;;;;;;;41.40;33.40;;;;;14.96;61.18;99171.38;6162109;28;96251;-69
2022/09/23 05:24:29;;;;;;;;;40.00;35.00;;;;;15.10;60.71;99180.09;6163532;28;96476;-63
2022/09/23 05:27:34;;;;;;;;;41.00;33.00;;;;;15.09;60.62;99190.13;6174418;28;96947;-68
2022/09/23 05:30:37;;;;;;;;;47.00;35.00;;;;;15.10;60.71;99190.94;6187526;28;96348;-64
2022/09/23 05:33:42;;;;;;;;;38.50;33.00;;;;;15.16;60.55;99190.78;6187486;28;96219;-69
2022/09/23 05:36:45;;;;;;;;;39.00;32.00;;;;;15.25;60.39;99193.91;6169741;28;96649;-65
2022/09/23 05:39:48;;;;;;;;;40.40;34.40;;;;;15.33;60.05;99187.28;6203191;28;96386;-65
2022/09/23 05:42:53;;;;;;;;;45.00;35.00;;;;;15.39;59.83;99194.44;6210827;28;96533;-59
2022/09/23 05:46:01;;;;;;;;;45.00;36.40;;;;;15.31;59.60;99197.56;6191260;28;96242;-65
2022/09/23 05:49:10;;;;;;;;;45.20;36.60;;;;;15.38;59.66;99195.50;6185894;28;98577;-61
2022/09/23 05:52:15;;;;;;;;;44.00;35.00;;;;;15.46;59.43;99192.38;6203573;28;96290;-63
2022/09/23 05:55:18;;;;;;;;;42.75;35.00;;;;;15.48;59.06;99193.81;6186825;28;96727;-63
2022/09/23 05:58:23;;;;;;;;;40.00;33.00;;;;;15.50;58.74;99204.41;6188507;28;96333;-66
2022/09/23 06:01:30;;;;;;;;;41.50;35.75;;;;;15.58;58.71;99199.44;6191495;28;97142;-66
2022/09/23 06:04:34;;;;;;;;;41.00;35.00;;;;;15.64;58.46;99207.69;6199378;28;96401;-66
2022/09/23 06:07:38;;;;;;;;;41.20;34.00;;;;;15.67;58.30;99204.47;6192425;28;96625;-66
2022/09/23 06:10:43;;;;;;;;;40.00;33.50;;;;;15.74;58.35;99205.09;6186799;28;96263;-65
2022/09/23 06:13:48;;;;;;;;;43.00;35.40;;;;;15.77;57.97;99208.16;6185518;28;96786;-63
2022/09/23 06:16:51;;;;;;;;;39.40;32.00;;;;;15.89;57.60;99208.06;6186082;28;96342;-68
2022/09/23 06:19:54;;;;;;;;;39.75;33.00;;;;;15.95;57.18;99207.09;6186347;28;96720;-60
2022/09/23 06:23:04;;;;;;;;;38.80;32.00;;;;;16.09;57.04;99208.38;6186426;28;96277;-66
2022/09/23 06:26:14;;;;;;;;;39.50;32.75;;;;;16.19;56.54;99211.25;6200175;28;96143;-66
2022/09/23 06:29:19;;;;;;;;;39.40;33.00;;;;;16.24;56.12;99210.50;6185507;28;96791;-59
2022/09/23 06:32:22;;;;;;;;;41.80;35.40;;;;;16.45;55.57;99213.25;6185660;28;96374;-68
2022/09/23 06:35:27;;;;;;;;;39.00;32.00;;;;;16.57;55.42;99215.03;6184983;28;97014;-61
2022/09/23 06:38:33;;;;;;;;;36.00;32.00;;;;;16.79;54.47;99207.72;6186061;28;96490;-59
2022/09/23 06:41:37;;;;;;;;;36.00;32.25;;;;;17.00;53.72;99209.63;6190224;28;96690;-67
2022/09/23 06:44:47;;;;;;;;;38.00;33.00;;;;;17.67;52.83;99214.66;6173093;28;98341;-67
2022/09/23 06:47:56;;;;;;;;;38.00;32.50;;;;;18.24;51.06;99220.25;6188747;28;96889;-68
2022/09/23 06:51:01;;;;;;;;;36.25;32.00;;;;;18.37;50.03;99219.00;6171693;28;97136;-64
2022/09/23 06:54:04;;;;;;;;;40.60;34.00;;;;;18.48;49.50;99223.41;6189281;28;96557;-70
2022/09/23 06:57:09;;;;;;;;;37.20;32.60;;;;;18.63;49.38;99215.31;6201594;28;96565;-70
2022/09/23 07:00:14;;;;;;;;;36.20;32.00;;;;;19.02;48.57;99227.50;6189120;28;96478;-69
2022/09/23 07:03:17;;;;;;;;;31.80;29.60;;;;;19.25;46.91;99223.50;6196490;28;97323;-60
2022/09/23 07:06:21;;;;;;;;;34.60;31.00;;;;;19.78;46.52;99219.47;6206678;28;96396;-65
2022/09/23 07:09:24;;;;;;;;;31.40;28.60;;;;;19.92;45.01;99233.41;6189207;28;96404;-67
2022/09/23 07:12:28;;;;;;;;;35.60;32.00;;;;;20.04;45.03;99227.66;6188667;28;97309;-66
2022/09/23 07:15:32;;;;;;;;;32.00;30.00;;;;;20.09;44.47;99224.91;6189450;28;96263;-69
2022/09/23 07:18:37;;;;;;;;;35.00;30.40;;;;;20.20;44.88;99218.34;6188530;28;96493;-63
2022/09/23 07:21:40;;;;;;;;;32.00;29.00;;;;;20.51;44.46;99227.34;6188629;28;97558;-64
2022/09/23 07:24:45;;;;;;;;;34.00;30.00;;;;;20.65;44.06;99223.75;6187435;28;96269;-65
2022/09/23 07:27:48;;;;;;;;;31.00;26.20;;;;;20.69;43.72;99227.56;6188689;28;96407;-69
2022/09/23 07:30:53;;;;;;;;;32.50;28.50;;;;;20.60;43.35;99231.97;6188090;28;96920;-64
2022/09/23 07:34:02;;;;;;;;;33.00;29.00;;;;;20.67;43.38;99228.94;6189565;28;96567;-65
2022/09/23 07:37:06;;;;;;;;;32.00;30.00;;;;;21.78;41.58;99241.25;6188260;28;96319;-70
2022/09/23 07:40:09;;;;;;;;;29.40;28.80;;;;;22.68;39.30;99241.50;6193774;28;96614;-69
2022/09/23 07:43:12;;;;;;;;;32.60;30.00;;;;;22.92;38.44;99234.09;6187703;28;98591;-62
2022/09/23 07:46:17;;;;;;;;;30.75;26.75;;;;;23.40;37.30;99234.84;6187961;28;96716;-65
2022/09/23 07:49:21;;;;;;;;;25.80;23.20;;;;;23.93;35.66;99238.19;6194982;28;96524;-69
2022/09/23 07:52:24;;;;;;;;;26.00;25.00;;;;;24.52;35.12;99237.44;6193780;28;96325;-63
2022/09/23 07:55:27;;;;;;;;;27.60;25.00;;;;;25.20;33.83;99233.88;6188932;28;96649;-66
2022/09/23 07:58:34;;;;;;;;;23.75;23.00;;;;;25.49;32.07;99240.97;6195991;28;96270;-66
2022/09/23 08:01:42;;;;;;;;;27.00;25.20;;;;;25.80;32.23;99234.41;6190336;28;97471;-62
2022/09/23 08:04:46;;;;;;;;;24.00;22.00;;;;;26.16;31.59;99239.06;6186080;28;96294;-69
2022/09/23 08:07:49;;;;;;;;;27.60;27.00;;;;;25.61;32.41;99236.53;6188157;28;97313;-70
2022/09/23 08:10:59;;;;;;;;;29.00;26.00;;;;;26.07;31.95;99244.53;6189137;28;96265;-66
2022/09/23 08:14:03;;;;;;;;;30.00;26.00;;;;;26.27;31.66;99233.00;6189222;28;96872;-70
2022/09/23 08:17:09;;;;;;;;;24.00;22.00;;;;;26.31;31.72;99235.94;6189260;28;96444;-60
2022/09/23 08:20:42;;;;;;;;;25.00;23.00;;;;;26.55;31.35;99230.03;6188162;28;96327;-65
2022/09/23 08:23:36;;;;;;;;;25.40;24.00;;;;;26.77;30.15;99237.47;6188701;28;96378;-73
2022/09/23 08:26:39;;;;;;;;;30.60;27.60;;;;;27.01;30.25;99230.44;6188167;28;96413;-66
2022/09/23 08:29:42;;;;;;;;;29.00;27.25;;;;;27.34;30.17;99227.22;6188657;28;96654;-68
2022/09/23 08:32:51;;;;;;;;;28.00;26.00;;;;;27.10;30.20;99224.91;6188594;28;96553;-69
2022/09/23 08:35:59;;;;;;;;;27.25;23.50;;;;;27.30;30.34;99224.28;6182683;28;98481;-62
2022/09/23 08:39:03;;;;;;;;;20.00;19.00;;;;;27.75;28.92;99218.47;6197409;28;96383;-67
2022/09/23 08:42:16;;;;;;;;;29.00;24.00;;;;;26.92;30.29;99229.59;6188760;28;97290;-66
2022/09/23 08:45:25;;;;;;;;;28.80;25.80;;;;;26.58;30.14;99219.19;6172932;28;96531;-67
2022/09/23 08:48:33;;;;;;;;;23.50;21.00;;;;;27.09;29.41;99218.56;6188481;28;96437;-66
2022/09/23 08:51:45;;;;;;;;;22.20;21.60;;;;;27.72;28.38;99203.31;6187118;28;96922;-66
2022/09/23 08:54:48;;;;;;;;;24.00;23.00;;;;;28.31;28.41;99200.78;6186913;28;96646;-68
2022/09/23 08:58:20;;;;;;;;;22.00;20.00;;;;;28.76;27.89;99201.13;6188448;28;96217;-62
2022/09/23 09:01:41;;;;;;;;;20.25;19.50;;;;;27.83;27.84;99204.63;6174267;28;96404;-70
2022/09/23 09:04:50;;;;;;;;;19.00;17.00;;;;;26.89;29.53;99205.31;6186271;28;96857;-65
2022/09/23 09:07:58;;;;;;;;;18.25;18.00;;;;;26.79;28.46;99202.81;6186391;28;96744;-65
2022/09/23 09:11:02;;;;;;;;;18.60;15.00;;;;;27.72;28.14;99192.25;6181943;28;97320;-67
2022/09/23 09:14:17;;;;;;;;;16.50;14.00;;;;;28.52;27.51;99203.66;6176888;28;96449;-65
2022/09/23 09:17:33;;;;;;;;;19.00;18.40;;;;;28.44;27.17;99197.81;6177284;28;97235;-61
2022/09/23 09:20:45;;;;;;;;;20.00;17.00;;;;;27.63;28.12;99199.75;6180140;28;98386;-64
2022/09/23 09:23:53;;;;;;;;;16.75;15.75;;;;;28.01;27.45;99191.53;6178957;28;97281;-64
2022/09/23 09:26:56;;;;;;;;;15.40;14.00;;;;;27.18;29.42;99190.88;6184215;28;96476;-69
2022/09/23 09:30:00;;;;;;;;;13.75;13.00;;;;;27.25;28.62;99191.22;6178749;28;96703;-65
2022/09/23 09:33:13;;;;;;;;;12.60;12.00;;;;;27.78;28.37;99188.16;6181932;28;97171;-61
2022/09/23 09:36:29;;;;;;;;;11.00;9.00;;;;;28.30;25.99;99179.75;6188293;28;96994;-65
2022/09/23 09:39:33;;;;;;;;;10.40;10.00;;;;;28.39;26.91;99188.88;6180492;28;97154;-72
2022/09/23 09:42:39;;;;;;;;;13.00;12.00;;;;;28.27;26.26;99177.66;6179737;28;96805;-60
2022/09/23 09:45:58;;;;;;;;;14.00;13.00;;;;;28.52;25.85;99182.28;6185804;28;99780;-68
2022/09/23 09:49:09;;;;;;;;;12.40;12.40;;;;;28.92;25.68;99177.22;6189324;28;97018;-70
2022/09/23 09:52:21;;;;;;;;;13.00;12.40;;;;;29.07;24.96;99154.44;6195019;28;97265;-68
2022/09/23 09:55:27;;;;;;;;;12.00;12.00;;;;;29.81;25.89;99173.09;6192563;28;96636;-68
2022/09/23 09:58:42;;;;;;;;;14.40;13.00;;;;;30.39;24.77;99163.69;6193849;28;96630;-63
2022/09/23 10:01:46;;;;;;;;;10.20;10.00;;;;;29.64;23.57;99157.44;6207039;28;96287;-62
2022/09/23 10:04:57;;;;;;;;;12.40;12.00;;;;;29.15;24.76;99156.31;6198067;28;96686;-64
2022/09/23 10:08:21;;;;;;;;;10.00;9.60;;;;;29.53;25.18;99153.44;6200626;28;96453;-69
2022/09/23 10:11:24;;;;;;;;;10.00;9.00;;;;;29.20;25.11;99152.53;6189443;28;96268;-61
2022/09/23 10:14:29;;;;;;;;;9.20;8.00;;;;;28.29;26.24;99159.56;6187096;28;96859;-62
2022/09/23 10:17:34;;;;;;;;;11.00;9.20;;;;;27.46;26.64;99152.66;6191772;28;96366;-66
2022/09/23 10:20:37;;;;;;;;;9.20;7.60;;;;;26.65;27.00;99149.56;6189746;28;98556;-62
2022/09/23 10:23:45;;;;;;;;;10.00;9.00;;;;;25.91;28.54;99154.06;6192601;28;96530;-70
2022/09/23 10:26:55;;;;;;;;;11.00;10.00;;;;;25.20;29.92;99147.50;6191279;28;96340;-60
2022/09/23 10:30:02;;;;;;;;;11.20;10.00;;;;;24.67;31.45;99148.09;6196596;28;98366;-64
2022/09/23 10:33:26;;;;;;;;;9.60;8.60;;;;;24.07;32.57;99150.06;6190323;28;98773;-69
2022/09/23 10:36:32;;;;;;;;;10.60;10.00;;;;;23.48;33.84;99154.41;6198483;28;96479;-61
2022/09/23 10:46:53;;;;;;;;;13.00;11.00;;;;;21.98;36.59;99145.84;6190095;28;96638;-65
2022/09/23 10:50:14;;;;;;;;;13.40;11.00;;;;;21.70;37.01;99137.59;6189583;28;97110;-65
2022/09/23 10:53:22;;;;;;;;;13.00;12.00;;;;;21.41;37.74;99146.59;6176612;28;96303;-62
2022/09/23 10:56:35;;;;;;;;;11.40;10.00;;;;;21.27;38.21;99145.59;6185708;28;96583;-66
2022/09/23 10:59:55;;;;;;;;;11.00;10.00;;;;;21.11;38.78;99139.34;6180215;28;96711;-67
2022/09/23 11:03:33;;;;;;;;;10.00;10.00;;;;;21.03;38.48;99133.66;6191563;28;96565;-66
2022/09/23 11:06:49;;;;;;;;;9.00;7.50;;;;;21.06;39.25;99142.13;6191048;28;96245;-60
2022/09/23 11:10:19;;;;;;;;;10.00;9.00;;;;;21.48;38.01;99125.16;6190615;28;97057;-59
2022/09/23 11:14:00;;;;;;;;;9.25;8.75;;;;;22.61;36.62;99122.88;6178638;28;96649;-70
2022/09/23 11:17:18;;;;;;;;;8.20;7.00;;;;;23.95;33.39;99119.44;6184882;28;96417;-62
2022/09/23 11:20:33;;;;;;;;;7.00;7.00;;;;;24.72;30.82;99116.84;6185614;28;96228;-61
2022/09/23 11:24:07;;;;;;;;;6.00;6.00;;;;;24.97;29.54;99119.88;6184980;28;96570;-61
2022/09/23 11:27:21;;;;;;;;;6.00;6.00;;;;;24.67;30.39;99117.78;6189789;28;96943;-69
2022/09/23 11:30:36;;;;;;;;;6.20;5.20;;;;;24.51;30.87;99110.94;6184018;28;96417;-64
2022/09/23 11:34:02;;;;;;;;;6.00;6.00;;;;;24.23;30.33;99114.84;6203585;28;96281;-62
2022/09/23 11:37:12;;;;;;;;;5.00;5.00;;;;;23.80;31.06;99109.53;6198531;28;96274;-69
2022/09/23 11:40:22;;;;;;;;;8.00;6.33;;;;;23.41;32.53;99104.38;6195791;28;96888;-62
2022/09/23 11:43:28;;;;;;;;;9.00;8.40;;;;;23.16;33.04;99108.38;6188516;28;96461;-65
2022/09/23 11:46:40;;;;;;;;;9.00;8.20;;;;;23.49;33.05;99094.69;6193171;28;98058;-62
2022/09/23 11:49:52;;;;;;;;;8.60;7.60;;;;;24.22;31.42;99093.91;6192344;28;96333;-63
2022/09/23 11:53:01;;;;;;;;;6.00;6.00;;;;;25.09;30.63;99094.50;6212876;28;96161;-67
2022/09/23 11:56:10;;;;;;;;;6.00;6.00;;;;;25.94;29.45;99093.50;6197978;28;96318;-65
2022/09/23 11:59:23;;;;;;;;;5.60;5.00;;;;;26.55;27.52;99089.84;6186752;28;97131;-71
2022/09/23 12:02:54;;;;;;;;;6.00;5.00;;;;;27.33;26.19;99090.75;6206875;28;96454;-62
2022/09/23 12:06:15;;;;;;;;;5.00;5.00;;;;;27.81;26.10;99086.94;6189784;28;97054;-63
2022/09/23 12:09:24;;;;;;;;;5.00;5.00;;;;;28.08;24.65;99085.72;6163045;28;99645;-66
2022/09/23 12:12:56;;;;;;;;;5.40;5.40;;;;;28.59;25.32;99082.72;6187500;28;96729;-69
2022/09/23 12:16:23;;;;;;;;;5.60;5.60;;;;;28.42;25.26;99078.09;6191973;28;96330;-61
2022/09/23 12:19:50;;;;;;;;;6.00;6.00;;;;;27.80;25.21;99074.25;6195285;28;96647;-65
2022/09/23 12:23:12;;;;;;;;;6.00;6.00;;;;;27.30;26.50;99076.75;6177189;28;99021;-61
2022/09/23 12:26:19;;;;;;;;;5.75;5.75;;;;;26.72;27.09;99067.75;6190956;28;96665;-66
2022/09/23 12:29:26;;;;;;;;;5.00;5.00;;;;;26.32;27.65;99066.19;6195825;28;96314;-60
2022/09/23 12:32:34;;;;;;;;;5.00;4.40;;;;;26.54;27.65;99065.25;6191038;28;96773;-65
2022/09/23 12:35:43;;;;;;;;;6.00;5.00;;;;;26.85;26.82;99063.22;6189037;28;96483;-64
2022/09/23 12:38:50;;;;;;;;;4.00;4.00;;;;;27.21;26.57;99053.81;6194018;28;96415;-65
2022/09/23 12:41:58;;;;;;;;;2.20;2.20;;;;;27.64;25.12;99054.56;6191472;28;96753;-65
2022/09/23 12:45:33;;;;;;;;;3.40;3.00;;;;;27.93;24.63;99039.97;6177932;28;96659;-64
2022/09/23 12:48:45;;;;;;;;;5.00;4.00;;;;;28.17;24.71;99039.41;6183515;28;96318;-65
2022/09/23 12:52:23;;;;;;;;;6.00;5.00;;;;;28.42;23.95;99039.25;6187937;28;96290;-66
2022/09/23 12:55:50;;;;;;;;;4.00;3.00;;;;;28.46;24.68;99035.81;6186374;28;97349;-69
2022/09/23 12:59:01;;;;;;;;;5.00;4.50;;;;;28.38;24.97;99034.72;6193657;28;96679;-71
2022/09/23 13:02:26;;;;;;;;;4.80;4.20;;;;;28.42;24.57;99038.44;6187781;28;96060;-70
2022/09/23 13:08:53;;;;;;;;;6.00;6.00;;;;;28.29;24.32;99025.66;6189176;28;96417;-68
2022/09/23 13:12:00;;;;;;;;;4.00;4.00;;;;;28.39;24.95;99022.50;6195559;28;96898;-68
2022/09/23 13:15:05;;;;;;;;;2.75;2.75;;;;;28.34;22.53;99015.19;6178515;28;96336;-66
2022/09/23 13:18:25;;;;;;;;;4.20;4.00;;;;;27.95;23.16;98991.38;6177971;28;97165;-64
2022/09/23 13:22:07;;;;;;;;;4.00;3.40;;;;;27.58;22.82;99008.78;6169758;28;96457;-69
2022/09/23 13:25:21;;;;;;;;;4.00;4.00;;;;;27.36;23.53;99009.00;6153156;28;97452;-67
2022/09/23 13:28:33;;;;;;;;;5.00;4.00;;;;;27.14;24.45;99008.06;6183954;28;96468;-62
2022/09/23 13:31:36;;;;;;;;;4.00;4.00;;;;;27.21;24.65;98993.72;6159684;28;96829;-66
2022/09/23 13:34:45;;;;;;;;;4.00;3.00;;;;;27.20;24.22;98994.84;6168568;28;98558;-66
2022/09/23 13:37:49;;;;;;;;;4.00;3.40;;;;;27.08;24.44;98989.16;6171381;28;97583;-70
2022/09/23 13:40:58;;;;;;;;;4.00;4.00;;;;;27.20;25.05;98985.75;6183592;28;96466;-69
2022/09/23 13:44:02;;;;;;;;;3.33;3.33;;;;;27.14;24.70;98996.16;6185607;28;96857;-68
2022/09/23 13:47:07;;;;;;;;;5.00;4.60;;;;;27.11;24.41;98992.13;6180916;28;96859;-67
2022/09/23 13:50:18;;;;;;;;;4.00;3.00;;;;;26.91;24.08;98986.44;6178656;28;98320;-70
2022/09/23 13:53:26;;;;;;;;;4.00;4.00;;;;;26.94;24.77;98969.97;6164200;28;96424;-66
2022/09/23 13:56:35;;;;;;;;;5.00;5.00;;;;;26.67;23.70;98973.88;6185049;28;96722;-65
2022/09/23 13:59:42;;;;;;;;;4.00;4.00;;;;;26.61;23.90;98969.66;6188580;28;97513;-68
2022/09/23 14:02:45;;;;;;;;;5.20;4.20;;;;;26.40;24.78;98968.63;6180425;28;97342;-62
2022/09/23 14:05:51;;;;;;;;;5.00;4.00;;;;;26.45;24.39;98967.66;6174308;28;96323;-63
2022/09/23 14:08:55;;;;;;;;;6.00;5.33;;;;;26.47;24.48;98965.41;6187117;28;96579;-62
2022/09/23 14:12:01;;;;;;;;;6.80;6.40;;;;;26.46;24.47;98956.28;6179693;28;96320;-65
2022/09/23 14:15:06;;;;;;;;;6.60;6.00;;;;;26.47;24.52;98952.41;6182164;28;96554;-63
2022/09/23 14:18:19;;;;;;;;;7.00;6.00;;;;;26.10;24.46;98928.09;6186702;28;96563;-68
2022/09/23 14:21:33;;;;;;;;;6.40;6.00;;;;;25.92;24.59;98948.53;6188128;28;96357;-64
2022/09/23 14:24:38;;;;;;;;;6.00;5.25;;;;;25.66;25.91;98960.28;6183587;28;96683;-66
2022/09/23 14:27:45;;;;;;;;;5.00;5.00;;;;;25.49;24.74;98940.88;6183699;28;97191;-65
2022/09/23 14:30:51;;;;;;;;;4.00;4.00;;;;;25.15;24.75;98940.69;6186007;28;96619;-66
2022/09/23 14:33:54;;;;;;;;;4.00;4.00;;;;;24.89;25.24;98951.56;6185800;28;96833;-64
2022/09/23 14:40:32;;;;;;;;;6.00;5.00;;;;;24.72;26.31;98940.38;6179636;28;96747;-68
2022/09/23 14:43:36;;;;;;;;;6.00;5.00;;;;;24.71;26.22;98942.31;6186979;28;96408;-64
2022/09/23 14:46:57;;;;;;;;;5.00;5.00;;;;;24.78;26.55;98936.34;6190345;28;96532;-65
2022/09/23 14:53:39;;;;;;;;;4.00;4.00;;;;;24.68;25.56;98933.88;6176056;28;96746;-70